»·PEaware :: N25EL KTOA-KVNY

N25EL :: KTOA-KVNY

FLIGHT INFORMATION

Flight Status: Arrived
Operator: Privately registered:
United States
More flights under this callsign
Pilot: Anonymous 31931 (31931)
Aircraft: MOONEY M-20 201 202 205 220 ATS MSE
(M20P)
More flights by this aircraft type
Origin: KTOA Zamperini
United States
Destination: KVNY Van Nuys
United States
More flights between these airports :: More routes between these airports
Route: LAX170 LIMBO V64 SMO125 SMO SMO317 CANOG
File this flight plan on PilotEdge
Remarks:
Altitude:
(Current/Filed)
4,000ft
Speed:
(Current/Filed)
170kts
Departed: 31-Oct-20 09:00 AM
Arrived: 31-Oct-20 09:58 AM
Distance/Time
Traveled:
26nm/0:58
Distance/Time
To Go:
Arrived

Flight Plot

Page will automatically refresh every two minutes.

Flight plan parsing failed; only flown route is shown


Map Options




Map Legend


Flown Route
Filed Route
Departure Airport
Arrival Airport
Navaid (VOR, NDB)
Fix

Horizontal Profiles

Position Reports

Time Latitude Longitude Heading Altitude Ground
Speed
31-Oct-20 08:28 33.796503 -118.332401 0 105ft 0kts
31-Oct-20 08:29 33.796503 -118.332401 0 105ft 0kts
31-Oct-20 08:30 33.796503 -118.332401 0 105ft 0kts
31-Oct-20 08:31 33.796503 -118.332401 0 105ft 0kts
31-Oct-20 08:32 33.796503 -118.332401 0 105ft 0kts
31-Oct-20 08:33 33.796503 -118.332401 0 105ft 0kts
31-Oct-20 08:34 33.796503 -118.332401 0 105ft 0kts
31-Oct-20 08:35 33.796503 -118.332401 0 105ft 0kts
31-Oct-20 08:36 33.796503 -118.332401 0 105ft 0kts
31-Oct-20 08:37 33.796503 -118.332401 0 105ft 0kts
31-Oct-20 08:38 33.796503 -118.332401 0 105ft 0kts
31-Oct-20 08:39 33.796503 -118.332401 0 105ft 0kts
31-Oct-20 08:40 33.796503 -118.332401 0 105ft 0kts
31-Oct-20 08:41 33.796503 -118.332401 0 105ft 0kts
31-Oct-20 08:42 33.796503 -118.332401 0 105ft 0kts
31-Oct-20 08:43 33.796503 -118.332401 0 105ft 0kts
31-Oct-20 08:44 33.796503 -118.332401 0 105ft 0kts
31-Oct-20 08:45 33.796503 -118.332401 0 105ft 0kts
31-Oct-20 08:46 33.796503 -118.332401 0 105ft 0kts
31-Oct-20 08:47 33.796503 -118.332401 0 105ft 0kts
31-Oct-20 08:48 33.796503 -118.332401 0 105ft 0kts
31-Oct-20 08:49 33.796503 -118.332401 0 105ft 0kts
31-Oct-20 08:50 33.797209 -118.332405 0 103ft 11kts
31-Oct-20 08:51 33.798437 -118.333807 74 101ft 10kts
31-Oct-20 08:52 33.798864 -118.333189 351 99ft 0kts
31-Oct-20 08:53 33.798864 -118.333189 351 99ft 0kts
31-Oct-20 08:54 33.798864 -118.333189 351 99ft 0kts
31-Oct-20 08:55 33.798864 -118.333189 351 99ft 0kts
31-Oct-20 08:56 33.798864 -118.333189 351 99ft 0kts
31-Oct-20 08:57 33.798864 -118.333189 351 99ft 0kts
31-Oct-20 08:58 33.799982 -118.333461 304 97ft 15kts
31-Oct-20 08:59 33.813915 -118.355427 302 811ft 108kts
31-Oct-20 09:00 33.830314 -118.387594 302 2215ft 113kts
31-Oct-20 09:01 33.848453 -118.421978 303 3422ft 121kts
31-Oct-20 09:02 33.830936 -118.441778 183 4067ft 155kts
31-Oct-20 09:03 33.789247 -118.425609 106 4013ft 174kts
31-Oct-20 09:04 33.787457 -118.366211 90 4051ft 171kts
31-Oct-20 09:05 33.783673 -118.306876 97 3896ft 174kts
31-Oct-20 09:06 33.784314 -118.249133 89 4083ft 161kts
31-Oct-20 09:07 33.812630 -118.237921 316 4079ft 162kts
31-Oct-20 09:08 33.841077 -118.282675 312 4049ft 169kts
31-Oct-20 09:09 33.877199 -118.320964 320 3994ft 168kts
31-Oct-20 09:10 33.913209 -118.357902 321 3995ft 167kts
31-Oct-20 09:11 33.949039 -118.394378 321 3995ft 167kts
31-Oct-20 09:12 33.985292 -118.431326 321 3995ft 167kts
31-Oct-20 09:13 34.023385 -118.465072 332 3994ft 166kts
31-Oct-20 09:14 34.065005 -118.491992 333 3995ft 166kts
31-Oct-20 09:15 34.107011 -118.519043 333 3995ft 166kts
31-Oct-20 09:16 34.148282 -118.545657 333 4287ft 149kts
31-Oct-20 09:17 34.181570 -118.567158 333 4987ft 134kts
31-Oct-20 09:18 34.219898 -118.586021 352 4987ft 155kts
31-Oct-20 09:19 34.264113 -118.593722 352 4991ft 163kts
31-Oct-20 09:20 34.310124 -118.601706 352 5001ft 166kts
31-Oct-20 09:21 34.357518 -118.609942 352 5011ft 167kts
31-Oct-20 09:22 34.404867 -118.617833 352 5020ft 167kts
31-Oct-20 09:23 34.452271 -118.625708 352 5018ft 167kts
31-Oct-20 09:24 34.479909 -118.593348 82 5023ft 169kts
31-Oct-20 09:25 34.471969 -118.539741 141 5050ft 173kts
31-Oct-20 09:26 34.429595 -118.511407 176 5023ft 179kts
31-Oct-20 09:27 34.379834 -118.505859 169 5092ft 175kts
31-Oct-20 09:28 34.333324 -118.501369 170 3706ft 147kts
31-Oct-20 09:29 34.298032 -118.499098 171 2823ft 109kts
31-Oct-20 09:30 34.264008 -118.496194 170 1975ft 128kts
31-Oct-20 09:31 34.228226 -118.492459 182 1291ft 119kts
31-Oct-20 09:32 34.193984 -118.484682 174 1728ft 131kts
31-Oct-20 09:33 34.155344 -118.474229 166 2146ft 129kts
31-Oct-20 09:34 34.111246 -118.461058 164 1785ft 172kts
31-Oct-20 09:35 34.065477 -118.453995 179 2249ft 156kts
31-Oct-20 09:36 34.020033 -118.455213 183 3062ft 164kts
31-Oct-20 09:37 33.990517 -118.486455 278 4150ft 146kts
31-Oct-20 09:38 34.004218 -118.537006 293 4608ft 173kts
31-Oct-20 09:39 34.023918 -118.595676 293 4606ft 188kts
31-Oct-20 09:40 34.044173 -118.655763 293 4606ft 191kts
31-Oct-20 09:41 34.061557 -118.718175 281 4606ft 192kts
31-Oct-20 09:42 34.070733 -118.781979 281 4605ft 176kts
31-Oct-20 09:43 34.078901 -118.838283 281 4607ft 163kts
31-Oct-20 09:44 34.114846 -118.860689 352 4608ft 157kts
31-Oct-20 09:45 34.161436 -118.868653 352 4607ft 169kts
31-Oct-20 09:46 34.191018 -118.828162 62 4606ft 172kts
31-Oct-20 09:47 34.202400 -118.782515 96 4031ft 129kts
31-Oct-20 09:48 34.199749 -118.740225 84 3903ft 121kts
31-Oct-20 09:49 34.199765 -118.694610 86 3925ft 138kts
31-Oct-20 09:51 34.199519 -118.646812 90 3928ft 125kts
31-Oct-20 09:52 34.198043 -118.601710 89 3769ft 138kts
31-Oct-20 09:53 34.199057 -118.553621 88 2957ft 136kts
31-Oct-20 09:54 34.193733 -118.509298 102 2380ft 124kts
31-Oct-20 09:55 34.203557 -118.473301 15 2040ft 117kts
31-Oct-20 09:56 34.236440 -118.473760 343 1942ft 118kts
31-Oct-20 09:57 34.226785 -118.490817 173 1068ft 97kts
31-Oct-20 09:58 34.211679 -118.489316 174 804ft 13kts
31-Oct-20 09:59 34.210296 -118.488602 86 804ft 0kts
31-Oct-20 10:00 34.210296 -118.488602 86 804ft 0kts
31-Oct-20 10:01 34.210302 -118.488312 91 804ft 7kts
31-Oct-20 10:02 34.210893 -118.486299 86 804ft 0kts

Navigation Log

Ident Type
Flight plan parsing failed, navigation log unavailable